Time;durP1;ratioP1;P1;durP2;ratioP2;P2;SDS_P1;SDS_P2;PMS_P1;PMS_P2;Temp;Humidity;BMP_temperature;BMP_pressure;BME280_temperature;BME280_humidity;BME280_pressure;Samples;Min_cycle;Max_cycle;Signal;HPM_P1;HPM_P2
2024/01/29 00:00:17;;;;;;;13.23;6.30;;;;;;;1.74;nan;100796.34;4952489;28;20533;-76
2024/01/29 00:02:44;;;;;;;10.90;6.17;;;;;;;1.75;nan;100795.47;4952886;28;20204;-78
2024/01/29 00:05:49;;;;;;;5.55;4.88;;;;;;;1.78;nan;100802.34;4953226;28;20456;-77
2024/01/29 00:08:39;;;;;;;6.97;5.80;;;;;;;1.75;nan;100802.38;4928792;28;20512;-77
2024/01/29 00:11:07;;;;;;;5.57;4.78;;;;;;;1.74;nan;100801.53;4951990;28;20511;-77
2024/01/29 00:13:33;;;;;;;7.75;6.00;;;;;;;1.75;nan;100803.22;4955808;28;20196;-78
2024/01/29 00:16:20;;;;;;;11.10;7.30;;;;;;;1.77;nan;100795.47;4955110;28;20211;-77
2024/01/29 00:19:22;;;;;;;10.15;5.80;;;;;;;1.74;nan;100793.75;4957659;28;20215;-77
2024/01/29 00:21:48;;;;;;;9.75;5.55;;;;;;;1.75;nan;100797.19;4954815;28;20227;-76
2024/01/29 00:24:29;;;;;;;8.10;5.27;;;;;;;1.74;nan;100798.94;4955668;28;20757;-77
2024/01/29 00:26:59;;;;;;;7.60;5.40;;;;;;;1.74;nan;100796.34;4957003;28;20466;-77
2024/01/29 00:30:06;;;;;;;6.85;5.20;;;;;;;1.76;nan;100798.94;4939498;28;20627;-77
2024/01/29 00:32:57;;;;;;;8.15;5.43;;;;;;;1.74;nan;100800.69;4954019;28;20829;-77
2024/01/29 00:35:44;;;;;;;7.17;4.93;;;;;;;1.73;nan;100793.78;4955209;28;20200;-77
2024/01/29 00:38:56;;;;;;;6.63;4.35;;;;;;;1.68;nan;100805.91;4933835;28;20416;-77
2024/01/29 00:41:50;;;;;;;7.72;4.90;;;;;;;1.61;nan;100794.72;4956182;28;20508;-78
2024/01/29 00:44:44;;;;;;;5.93;5.18;;;;;;;1.58;nan;100801.66;4956036;28;20704;-77
2024/01/29 00:47:15;;;;;;;4.43;3.83;;;;;;;1.54;nan;100809.47;4956741;28;20215;-77
2024/01/29 00:50:27;;;;;;;5.68;4.90;;;;;;;1.52;nan;100800.84;4953483;28;20216;-77
2024/01/29 00:54:11;;;;;;;4.70;4.28;;;;;;;1.50;nan;100799.13;4954095;28;20312;-77
2024/01/29 00:57:06;;;;;;;9.23;5.45;;;;;;;1.46;nan;100803.47;4934003;28;20288;-77
2024/01/29 01:00:49;;;;;;;8.23;5.88;;;;;;;1.40;nan;100795.75;4959859;28;20608;-78
2024/01/29 01:03:18;;;;;;;7.07;5.40;;;;;;;1.39;nan;100806.97;4897294;28;20454;-78
2024/01/29 01:05:43;;;;;;;6.18;5.40;;;;;;;1.38;nan;100806.97;4932094;28;20208;-77
2024/01/29 01:08:08;;;;;;;10.50;6.55;;;;;;;1.39;nan;100811.31;4937247;28;20439;-77
2024/01/29 01:10:34;;;;;;;6.30;5.70;;;;;;;1.36;nan;100809.59;4938934;28;20209;-78
2024/01/29 01:13:00;;;;;;;6.67;5.27;;;;;;;1.35;nan;100807.88;4935935;28;20690;-77
2024/01/29 01:15:25;;;;;;;6.40;5.73;;;;;;;1.36;nan;100819.94;4938301;28;20197;-77
2024/01/29 01:17:51;;;;;;;6.13;4.90;;;;;;;1.36;nan;100814.75;4932629;28;20481;-77
2024/01/29 01:20:16;;;;;;;11.80;6.17;;;;;;;1.36;nan;100825.13;4932239;28;20205;-77
2024/01/29 01:22:41;;;;;;;6.97;5.60;;;;;;;1.35;nan;100818.25;4935751;28;20213;-76
2024/01/29 01:25:07;;;;;;;6.50;5.77;;;;;;;1.29;nan;100829.47;4935240;28;20200;-78
2024/01/29 01:27:33;;;;;;;6.50;5.80;;;;;;;1.27;nan;100817.41;4993336;23;20269;-85
2024/01/29 01:29:58;;;;;;;13.33;7.17;;;;;;;1.26;nan;100834.66;4978625;28;20261;-85
2024/01/29 01:32:24;;;;;;;7.20;6.23;;;;;;;1.24;nan;100831.25;4995098;28;20206;-85
2024/01/29 01:34:50;;;;;;;8.57;6.38;;;;;;;1.25;nan;100830.38;5000335;28;20366;-85
2024/01/29 01:37:15;;;;;;;7.87;6.50;;;;;;;1.21;nan;100826.06;5004887;28;20288;-84
2024/01/29 01:39:41;;;;;;;12.23;8.40;;;;;;;1.19;nan;100832.09;5007827;28;20691;-84
2024/01/29 01:42:06;;;;;;;12.30;8.20;;;;;;;1.19;nan;100839.88;5006719;28;20919;-85
2024/01/29 01:44:31;;;;;;;14.27;8.20;;;;;;;1.19;nan;100830.41;5011435;28;20233;-83
2024/01/29 01:46:59;;;;;;;14.30;9.10;;;;;;;1.19;nan;100832.09;5004543;28;20195;-83
2024/01/29 01:49:24;;;;;;;17.63;9.25;;;;;;;1.19;nan;100833.00;5004087;28;20210;-84
2024/01/29 01:51:50;;;;;;;8.33;6.63;;;;;;;1.20;nan;100832.13;5004288;28;20578;-84
2024/01/29 01:54:16;;;;;;;12.27;8.27;;;;;;;1.19;nan;100825.22;4997233;28;20229;-84
2024/01/29 01:56:42;;;;;;;12.90;8.43;;;;;;;1.17;nan;100831.28;4999131;28;20730;-84
2024/01/29 01:59:10;;;;;;;16.95;9.82;;;;;;;1.16;nan;100820.06;5000468;28;20302;-85
2024/01/29 02:01:35;;;;;;;11.65;7.60;;;;;;;1.18;nan;100830.41;5000138;28;20292;-83
2024/01/29 02:04:01;;;;;;;12.30;8.23;;;;;;;1.14;nan;100832.16;5001582;28;20213;-85
2024/01/29 02:06:27;;;;;;;9.47;8.30;;;;;;;1.14;nan;100831.31;4998581;28;20725;-86
2024/01/29 02:08:53;;;;;;;12.05;8.95;;;;;;;1.17;nan;100814.03;4998979;28;20433;-85
2024/01/29 02:11:19;;;;;;;8.60;6.85;;;;;;;1.18;nan;100820.91;4999213;28;20553;-85
2024/01/29 02:13:44;;;;;;;10.07;6.43;;;;;;;1.19;nan;100829.53;5001877;28;20209;-84
2024/01/29 02:16:10;;;;;;;9.97;6.23;;;;;;;1.18;nan;100827.81;5003298;28;20223;-86
2024/01/29 02:18:35;;;;;;;8.57;6.00;;;;;;;1.17;nan;100836.47;5011994;28;20223;-86
2024/01/29 02:21:00;;;;;;;9.83;6.30;;;;;;;1.15;nan;100826.09;5012573;28;20855;-84
2024/01/29 02:23:26;;;;;;;9.73;7.40;;;;;;;1.15;nan;100831.28;5008429;28;20223;-86
2024/01/29 02:25:51;;;;;;;11.20;6.87;;;;;;;1.14;nan;100829.56;5005882;28;20273;-85
2024/01/29 02:28:17;;;;;;;8.27;7.40;;;;;;;1.14;nan;100837.34;5008030;28;20230;-85
2024/01/29 02:30:43;;;;;;;9.83;7.30;;;;;;;1.14;nan;100833.88;4992162;28;20207;-87
2024/01/29 02:33:09;;;;;;;11.27;6.97;;;;;;;1.12;nan;100833.88;5013311;28;20225;-85
2024/01/29 02:35:34;;;;;;;7.40;6.70;;;;;;;1.09;nan;100837.34;5010687;28;20210;-86
2024/01/29 02:38:00;;;;;;;13.02;10.85;;;;;;;1.06;nan;100836.50;5010592;28;20524;-86
2024/01/29 02:40:25;;;;;;;14.13;10.30;;;;;;;1.04;nan;100838.25;5006603;28;20746;-86
2024/01/29 02:42:51;;;;;;;14.40;9.83;;;;;;;0.99;nan;100840.00;5009968;28;20198;-86
2024/01/29 02:45:16;;;;;;;12.67;8.23;;;;;;;0.93;nan;100832.25;5008913;28;20197;-86
2024/01/29 02:47:42;;;;;;;12.30;8.90;;;;;;;0.91;nan;100844.34;5004212;28;20218;-85
2024/01/29 02:50:07;;;;;;;11.30;8.40;;;;;;;0.90;nan;100834.88;5004896;28;23630;-85
2024/01/29 02:52:33;;;;;;;9.77;8.00;;;;;;;0.92;nan;100839.16;5005140;28;20215;-86
2024/01/29 02:54:58;;;;;;;9.63;7.30;;;;;;;0.95;nan;100833.13;5003640;28;21211;-85
2024/01/29 02:57:24;;;;;;;9.20;8.03;;;;;;;0.97;nan;100836.53;5004314;28;20257;-85
2024/01/29 02:59:53;;;;;;;18.33;7.70;;;;;;;0.97;nan;100837.38;5005710;28;20195;-85
2024/01/29 03:02:19;;;;;;;9.98;7.68;;;;;;;0.96;nan;100842.59;5001277;28;20610;-86
2024/01/29 03:04:44;;;;;;;6.37;5.77;;;;;;;0.97;nan;100847.75;5001298;28;20273;-86
2024/01/29 03:07:10;;;;;;;9.90;7.50;;;;;;;0.98;nan;100844.31;5002675;28;20214;-86
2024/01/29 03:09:36;;;;;;;9.17;7.13;;;;;;;0.98;nan;100846.91;5002053;28;20209;-85
2024/01/29 03:12:02;;;;;;;8.65;6.93;;;;;;;1.00;nan;100844.28;5003746;28;20312;-86
2024/01/29 03:14:28;;;;;;;9.70;7.20;;;;;;;0.96;nan;100846.03;5004130;28;20680;-85
2024/01/29 03:16:53;;;;;;;7.30;6.50;;;;;;;0.93;nan;100843.47;5003667;28;20252;-86
2024/01/29 03:19:20;;;;;;;9.23;6.40;;;;;;;0.95;nan;100848.66;5004068;28;20211;-86
2024/01/29 03:21:45;;;;;;;7.57;6.93;;;;;;;0.97;nan;100842.56;5004281;28;20274;-85
2024/01/29 03:24:11;;;;;;;8.33;6.60;;;;;;;0.99;nan;100840.84;5004851;28;20289;-85
2024/01/29 03:26:36;;;;;;;6.50;5.43;;;;;;;1.01;nan;100844.28;5005779;28;20198;-85
2024/01/29 03:29:02;;;;;;;8.47;5.57;;;;;;;1.01;nan;100839.13;4998915;28;20317;-85
2024/01/29 03:31:27;;;;;;;8.10;6.60;;;;;;;1.02;nan;100845.16;4999396;28;20540;-87
2024/01/29 03:33:53;;;;;;;9.40;5.67;;;;;;;0.99;nan;100840.84;5001766;28;20199;-85
2024/01/29 03:36:19;;;;;;;7.05;5.40;;;;;;;0.94;nan;100842.59;4997114;28;20302;-85
2024/01/29 03:38:45;;;;;;;11.20;8.30;;;;;;;0.90;nan;100837.44;4998141;28;20441;-85
2024/01/29 03:41:10;;;;;;;7.57;5.90;;;;;;;0.86;nan;100841.75;4993651;28;20210;-86
2024/01/29 03:43:35;;;;;;;8.63;6.97;;;;;;;0.82;nan;100830.56;5001183;28;20222;-85
2024/01/29 03:46:01;;;;;;;10.10;6.87;;;;;;;0.82;nan;100834.91;5002483;28;20202;-85
2024/01/29 03:48:26;;;;;;;8.80;6.50;;;;;;;0.81;nan;100835.75;5001025;28;20220;-86
2024/01/29 03:50:52;;;;;;;6.70;6.00;;;;;;;0.82;nan;100835.75;5003829;28;20261;-85
2024/01/29 03:53:17;;;;;;;7.93;5.83;;;;;;;0.83;nan;100841.78;5001963;28;20211;-85
2024/01/29 03:55:43;;;;;;;8.47;6.30;;;;;;;0.82;nan;100840.06;5004211;28;20207;-85
2024/01/29 03:58:08;;;;;;;13.43;6.70;;;;;;;0.82;nan;100838.34;5000321;28;22517;-85
2024/01/29 04:00:34;;;;;;;9.87;6.00;;;;;;;0.84;nan;100846.09;5002630;28;20205;-84
2024/01/29 04:03:03;;;;;;;6.73;5.90;;;;;;;0.85;nan;100838.31;5002931;28;20195;-85
2024/01/29 04:05:28;;;;;;;6.90;4.88;;;;;;;0.86;nan;100828.81;4998510;28;20285;-85
2024/01/29 04:07:54;;;;;;;8.67;6.13;;;;;;;0.86;nan;100837.47;5008101;28;20203;-85
2024/01/29 04:10:19;;;;;;;8.83;5.73;;;;;;;0.88;nan;100840.88;5003034;28;20224;-86
2024/01/29 04:12:45;;;;;;;6.90;6.07;;;;;;;0.90;nan;100840.91;5001166;28;20203;-85
2024/01/29 04:15:10;;;;;;;9.63;5.80;;;;;;;0.93;nan;100840.88;5002379;28;20210;-85
2024/01/29 04:17:36;;;;;;;5.37;4.33;;;;;;;0.94;nan;100842.59;5000868;28;20203;-85
2024/01/29 04:20:04;;;;;;;11.20;5.83;;;;;;;0.95;nan;100848.66;5001927;28;20740;-85
2024/01/29 04:22:29;;;;;;;7.93;5.43;;;;;;;0.93;nan;100840.88;5001920;28;20195;-86
2024/01/29 04:24:55;;;;;;;7.97;5.87;;;;;;;0.91;nan;100842.59;5007299;28;20625;-85
2024/01/29 04:27:20;;;;;;;10.40;8.07;;;;;;;0.89;nan;100839.16;5005545;28;20219;-85
2024/01/29 04:29:46;;;;;;;8.40;5.30;;;;;;;0.86;nan;100844.34;5007527;28;20409;-86
2024/01/29 04:32:11;;;;;;;7.93;6.00;;;;;;;0.84;nan;100846.09;5008856;28;20661;-86
2024/01/29 04:34:36;;;;;;;5.00;4.50;;;;;;;0.83;nan;100844.34;5011408;28;20195;-86
2024/01/29 04:37:02;;;;;;;10.73;8.00;;;;;;;0.80;nan;100839.19;5008018;28;20428;-85
2024/01/29 04:39:27;;;;;;;9.43;8.43;;;;;;;0.80;nan;100846.97;5005726;28;20451;-87
2024/01/29 04:41:53;;;;;;;9.57;7.50;;;;;;;0.76;nan;100835.78;5003662;28;20195;-85
2024/01/29 04:44:22;;;;;;;6.87;5.83;;;;;;;0.75;nan;100844.38;5004244;28;20218;-87
2024/01/29 04:46:58;;;;;;;7.82;6.95;;;;;;;0.73;nan;100842.66;4998956;28;20199;-88
2024/01/29 04:49:30;;;;;;;11.75;6.10;;;;;;;0.71;nan;100839.25;4995118;28;20685;-86
2024/01/29 04:51:56;;;;;;;12.35;6.47;;;;;;;0.70;nan;100840.94;4999962;28;20200;-87
2024/01/29 04:54:21;;;;;;;7.20;6.43;;;;;;;0.67;nan;100843.56;4985547;28;20551;-87
2024/01/29 04:56:47;;;;;;;6.77;5.37;;;;;;;0.64;nan;100835.81;4993532;28;20222;-87
2024/01/29 04:59:12;;;;;;;8.60;5.50;;;;;;;0.59;nan;100843.56;4973736;28;20199;-87
2024/01/29 05:01:37;;;;;;;8.67;5.67;;;;;;;0.58;nan;100834.09;4988716;28;20205;-87
2024/01/29 05:04:03;;;;;;;9.13;5.90;;;;;;;0.58;nan;100834.09;4986702;28;20215;-87
2024/01/29 05:06:28;;;;;;;9.53;5.70;;;;;;;0.56;nan;100834.97;4967705;28;20225;-87
2024/01/29 05:08:55;;;;;;;9.37;6.40;;;;;;;0.55;nan;100841.03;4955173;28;20203;-87
2024/01/29 05:11:23;;;;;;;7.22;5.78;;;;;;;0.57;nan;100834.97;4973601;28;20258;-87
2024/01/29 05:13:49;;;;;;;9.27;5.60;;;;;;;0.58;nan;100831.53;4991777;28;20261;-87
2024/01/29 05:16:15;;;;;;;7.30;5.57;;;;;;;0.61;nan;100841.00;4992079;28;20195;-87
2024/01/29 05:18:41;;;;;;;7.10;5.80;;;;;;;0.61;nan;100839.25;4987449;28;20203;-87
2024/01/29 05:21:07;;;;;;;9.10;6.32;;;;;;;0.63;nan;100849.63;4991378;28;20218;-87
2024/01/29 05:23:32;;;;;;;14.33;9.20;;;;;;;0.65;nan;100843.56;4990839;28;20219;-87
2024/01/29 05:25:58;;;;;;;11.67;6.87;;;;;;;0.65;nan;100843.56;4990277;28;20680;-87
2024/01/29 05:28:24;;;;;;;9.52;6.80;;;;;;;0.66;nan;100842.69;4998498;28;20269;-87
2024/01/29 05:30:51;;;;;;;8.27;7.10;;;;;;;0.68;nan;100839.25;5005149;28;20366;-87
2024/01/29 05:33:17;;;;;;;8.93;6.15;;;;;;;0.69;nan;100843.56;5003114;28;20203;-86
2024/01/29 05:35:42;;;;;;;10.30;6.43;;;;;;;0.68;nan;100837.53;5003534;28;20193;-87
2024/01/29 05:38:07;;;;;;;14.93;11.23;;;;;;;0.69;nan;100835.81;5004598;28;20439;-86
2024/01/29 05:40:33;;;;;;;11.53;8.23;;;;;;;0.69;nan;100843.56;5000277;28;20269;-88
2024/01/29 05:42:58;;;;;;;9.77;6.97;;;;;;;0.68;nan;100837.53;5006145;28;20933;-87
2024/01/29 05:45:24;;;;;;;9.17;6.43;;;;;;;0.69;nan;100847.00;5005754;28;20222;-87
2024/01/29 05:47:50;;;;;;;8.53;7.43;;;;;;;0.69;nan;100857.34;5009603;28;20304;-86
2024/01/29 05:50:16;;;;;;;13.10;9.02;;;;;;;0.69;nan;100859.06;5024397;28;20206;-86
2024/01/29 05:52:41;;;;;;;14.40;8.23;;;;;;;0.68;nan;100862.53;5008952;28;20688;-84
2024/01/29 05:55:07;;;;;;;11.80;8.00;;;;;;;0.66;nan;100857.34;5011268;28;20205;-84
2024/01/29 05:57:35;;;;;;;11.07;7.57;;;;;;;0.64;nan;100859.94;5009547;28;20241;-84
2024/01/29 06:00:03;;;;;;;8.45;6.13;;;;;;;0.61;nan;100852.19;5013668;28;20278;-84
2024/01/29 06:02:42;;;;;;;7.20;6.28;;;;;;;0.58;nan;100849.63;5014157;28;20230;-84
2024/01/29 06:05:09;;;;;;;7.20;6.45;;;;;;;0.59;nan;100860.81;5013492;28;20226;-83
2024/01/29 06:07:35;;;;;;;7.75;4.57;;;;;;;0.57;nan;100853.09;5009310;28;20383;-84
2024/01/29 06:10:00;;;;;;;6.40;5.37;;;;;;;0.57;nan;100850.50;5011153;28;20214;-84
2024/01/29 06:12:25;;;;;;;8.67;6.00;;;;;;;0.56;nan;100850.47;5006743;28;20223;-84
2024/01/29 06:14:51;;;;;;;10.20;5.80;;;;;;;0.54;nan;100847.03;5001706;28;20203;-84
2024/01/29 06:17:16;;;;;;;9.57;6.70;;;;;;;0.53;nan;100846.19;5003930;28;20206;-83
2024/01/29 06:19:42;;;;;;;8.07;7.00;;;;;;;0.53;nan;100847.91;5002326;28;20305;-83
2024/01/29 06:22:07;;;;;;;9.33;5.87;;;;;;;0.52;nan;100848.78;5002246;28;20199;-83
2024/01/29 06:24:32;;;;;;;6.20;5.70;;;;;;;0.50;nan;100856.53;5000785;28;20220;-83
2024/01/29 06:26:58;;;;;;;6.97;5.70;;;;;;;0.47;nan;100853.97;5000793;28;20210;-83
2024/01/29 06:29:23;;;;;;;12.83;7.37;;;;;;;0.44;nan;100851.38;5005934;28;20218;-83
2024/01/29 06:31:49;;;;;;;8.00;7.07;;;;;;;0.43;nan;100841.91;5008946;28;20225;-83
2024/01/29 06:34:14;;;;;;;10.87;8.50;;;;;;;0.43;nan;100847.06;5008006;28;20202;-83
2024/01/29 06:36:39;;;;;;;15.13;10.47;;;;;;;0.46;nan;100844.50;5006481;28;20528;-83
2024/01/29 06:39:07;;;;;;;11.33;7.83;;;;;;;0.44;nan;100849.66;5010753;28;20233;-83
2024/01/29 06:41:32;;;;;;;10.35;7.18;;;;;;;0.47;nan;100856.53;5007450;28;20205;-84
2024/01/29 06:43:58;;;;;;;10.10;6.30;;;;;;;0.48;nan;100854.81;5012477;28;20445;-83
2024/01/29 06:46:23;;;;;;;10.00;6.97;;;;;;;0.47;nan;100861.72;5011103;28;20241;-83
2024/01/29 06:48:49;;;;;;;6.13;5.57;;;;;;;0.48;nan;100862.56;5012226;28;20211;-83
2024/01/29 06:51:17;;;;;;;7.50;6.40;;;;;;;0.49;nan;100862.59;5012395;28;20227;-83
2024/01/29 06:53:44;;;;;;;10.25;5.97;;;;;;;0.47;nan;100860.88;5012980;28;20200;-83
2024/01/29 06:56:09;;;;;;;9.45;5.75;;;;;;;0.47;nan;100868.63;5012674;28;20187;-83
2024/01/29 06:58:37;;;;;;;7.27;5.13;;;;;;;0.47;nan;100863.44;5012397;28;20667;-83
2024/01/29 07:01:04;;;;;;;9.45;5.20;;;;;;;0.50;nan;100874.63;5012558;28;20321;-83
2024/01/29 07:03:30;;;;;;;11.75;6.13;;;;;;;0.52;nan;100872.06;5010946;28;20206;-83
2024/01/29 07:05:56;;;;;;;6.53;5.57;;;;;;;0.51;nan;100876.34;5013038;28;20210;-83
2024/01/29 07:08:22;;;;;;;9.95;6.43;;;;;;;0.54;nan;100872.88;5013171;28;20495;-83
2024/01/29 07:10:47;;;;;;;6.37;5.60;;;;;;;0.55;nan;100874.63;5012748;28;20215;-83
2024/01/29 07:13:16;;;;;;;9.23;7.20;;;;;;;0.56;nan;100873.75;5013281;28;20277;-83
2024/01/29 07:15:52;;;;;;;8.68;6.20;;;;;;;0.60;nan;100876.34;5014900;28;20927;-83
2024/01/29 07:18:18;;;;;;;6.50;4.70;;;;;;;0.61;nan;100880.63;5011189;28;20297;-83
2024/01/29 07:20:45;;;;;;;7.17;5.63;;;;;;;0.66;nan;100883.22;5014219;28;20510;-83
2024/01/29 07:23:10;;;;;;;6.75;4.60;;;;;;;0.69;nan;100880.63;5010133;28;21028;-84
2024/01/29 07:25:38;;;;;;;8.37;6.20;;;;;;;0.72;nan;100877.16;5012159;28;20201;-83
2024/01/29 07:28:04;;;;;;;6.68;5.90;;;;;;;0.72;nan;100883.19;5047841;23;20240;-77
2024/01/29 07:30:30;;;;;;;6.43;5.60;;;;;;;0.76;nan;100879.75;4933315;28;20216;-78
2024/01/29 07:32:59;;;;;;;12.33;7.27;;;;;;;0.82;nan;100886.63;4943756;28;20522;-79
2024/01/29 07:35:25;;;;;;;9.60;5.85;;;;;;;0.85;nan;100886.59;4960783;28;20200;-78
2024/01/29 07:37:52;;;;;;;9.45;6.75;;;;;;;0.88;nan;100873.66;4959392;28;20587;-79
2024/01/29 07:40:19;;;;;;;9.98;7.75;;;;;;;0.95;nan;100880.53;4957769;28;20287;-78
2024/01/29 07:42:45;;;;;;;6.93;5.22;;;;;;;1.02;nan;100882.22;4956736;28;20718;-78
2024/01/29 07:45:10;;;;;;;7.63;6.83;;;;;;;1.09;nan;100883.91;4957133;28;20240;-78
2024/01/29 07:47:36;;;;;;;5.97;4.33;;;;;;;1.17;nan;100890.81;4957570;28;20967;-79
2024/01/29 07:50:01;;;;;;;8.77;5.77;;;;;;;1.23;nan;100890.78;4965113;28;20216;-78
2024/01/29 07:52:27;;;;;;;9.40;5.53;;;;;;;1.29;nan;100885.56;4951775;28;20196;-79
2024/01/29 07:54:52;;;;;;;8.30;5.40;;;;;;;1.35;nan;100890.72;4958513;28;20200;-78
2024/01/29 07:57:18;;;;;;;19.57;13.30;;;;;;;1.41;nan;100889.81;4966058;28;20219;-80
2024/01/29 07:59:45;;;;;;;5.90;5.40;;;;;;;1.47;nan;100889.78;4954143;28;20268;-80
2024/01/29 08:02:11;;;;;;;11.55;7.32;;;;;;;1.53;nan;100898.34;4953746;28;20216;-80
2024/01/29 08:04:37;;;;;;;8.07;6.43;;;;;;;1.62;nan;100883.63;4951885;28;20200;-81
2024/01/29 08:07:02;;;;;;;9.63;8.07;;;;;;;1.71;nan;100894.81;4951778;28;20885;-81
2024/01/29 08:09:27;;;;;;;14.00;9.67;;;;;;;1.82;nan;100896.47;4951384;28;20453;-81
2024/01/29 08:11:53;;;;;;;11.90;9.27;;;;;;;1.89;nan;100888.66;4955783;28;20924;-81
2024/01/29 08:14:18;;;;;;;13.30;8.30;;;;;;;1.97;nan;100889.44;4954752;28;20204;-81
2024/01/29 08:16:43;;;;;;;9.23;7.13;;;;;;;2.04;nan;100885.06;4953083;28;20201;-81
2024/01/29 08:19:09;;;;;;;11.77;7.63;;;;;;;2.11;nan;100880.69;4952885;28;20205;-81
2024/01/29 08:21:35;;;;;;;12.23;7.57;;;;;;;2.20;nan;100885.78;4954387;28;20200;-81
2024/01/29 08:24:02;;;;;;;7.87;6.37;;;;;;;2.28;nan;100880.53;4954783;28;20209;-81
2024/01/29 08:26:28;;;;;;;10.85;6.13;;;;;;;2.37;nan;100890.81;4954606;28;20622;-81
2024/01/29 08:28:53;;;;;;;9.30;7.30;;;;;;;2.44;nan;100888.16;4957759;28;20811;-81
2024/01/29 08:31:19;;;;;;;6.73;6.03;;;;;;;2.53;nan;100886.34;4959513;28;20204;-81
2024/01/29 08:33:44;;;;;;;8.03;5.63;;;;;;;2.61;nan;100884.53;4958210;28;20339;-81
2024/01/29 08:36:10;;;;;;;5.93;4.97;;;;;;;2.71;nan;100882.72;4959888;28;20811;-81
2024/01/29 08:38:36;;;;;;;8.27;6.97;;;;;;;2.81;nan;100881.75;4957648;28;20442;-81
2024/01/29 08:41:01;;;;;;;7.73;5.80;;;;;;;2.92;nan;100890.25;4958280;28;20204;-81
2024/01/29 08:43:27;;;;;;;8.20;5.97;;;;;;;3.01;nan;100881.50;4955680;28;20188;-81
2024/01/29 08:45:52;;;;;;;8.60;6.73;;;;;;;3.09;nan;100882.25;4958210;28;20296;-81
2024/01/29 08:48:17;;;;;;;5.73;5.17;;;;;;;3.18;nan;100882.13;4957065;28;20201;-81
2024/01/29 08:50:43;;;;;;;7.23;5.23;;;;;;;3.26;nan;100882.88;4956943;28;20204;-81
2024/01/29 08:53:09;;;;;;;5.97;5.37;;;;;;;3.38;nan;100881.03;4957625;28;20600;-81
2024/01/29 08:55:34;;;;;;;8.97;6.00;;;;;;;3.46;nan;100887.81;4955811;28;20266;-81
2024/01/29 08:58:00;;;;;;;6.50;5.20;;;;;;;3.58;nan;100888.53;4956363;28;20205;-81
2024/01/29 09:00:25;;;;;;;7.47;5.87;;;;;;;3.71;nan;100893.53;4973661;28;20196;-81
2024/01/29 09:02:51;;;;;;;6.77;6.10;;;;;;;3.88;nan;100893.25;4957816;28;20211;-81
2024/01/29 09:05:16;;;;;;;7.53;5.53;;;;;;;4.15;nan;100893.69;4953672;28;20674;-81
2024/01/29 09:07:42;;;;;;;10.90;7.07;;;;;;;4.71;nan;100893.59;4957387;28;20942;-81
2024/01/29 09:10:08;;;;;;;7.63;6.90;;;;;;;5.44;nan;100893.84;4957471;28;20742;-81
2024/01/29 09:12:34;;;;;;;10.15;7.95;;;;;;;6.25;nan;100891.97;4955740;28;20207;-81
2024/01/29 09:15:00;;;;;;;8.60;7.17;;;;;;;6.98;nan;100896.97;4958800;28;20188;-81
2024/01/29 09:17:25;;;;;;;10.90;8.27;;;;;;;7.64;nan;100897.66;4956862;28;20253;-81
2024/01/29 09:19:51;;;;;;;10.60;6.47;;;;;;;8.23;nan;100895.78;4957336;28;20323;-81
2024/01/29 09:22:17;;;;;;;12.85;7.20;;;;;;;8.76;nan;100893.97;4957010;28;20311;-80
2024/01/29 09:24:43;;;;;;;12.23;6.63;;;;;;;9.41;nan;100900.31;4956160;28;20263;-80
2024/01/29 09:27:09;;;;;;;7.57;6.60;;;;;;;9.91;nan;100887.00;4956612;28;20228;-81
2024/01/29 09:29:34;;;;;;;6.73;4.50;;;;;;;10.35;nan;100891.34;4958062;28;20243;-81
2024/01/29 09:32:00;;;;;;;5.00;4.50;;;;;;;10.65;nan;100896.22;4958279;28;20870;-81
2024/01/29 09:34:27;;;;;;;6.67;3.90;;;;;;;10.90;nan;100893.34;4958419;28;20229;-81
2024/01/29 09:36:53;;;;;;;4.93;4.03;;;;;;;11.03;nan;100889.25;4958364;28;20238;-80
2024/01/29 09:39:19;;;;;;;6.33;5.20;;;;;;;10.99;nan;100892.94;4957530;28;20212;-80
2024/01/29 09:41:46;;;;;;;7.20;4.70;;;;;;;10.98;nan;100897.34;4959742;28;20211;-80
2024/01/29 09:44:12;;;;;;;5.70;5.13;;;;;;;10.98;nan;100897.34;4960109;28;20455;-80
2024/01/29 09:46:39;;;;;;;7.30;4.70;;;;;;;11.07;nan;100906.59;4959950;28;20504;-80
2024/01/29 09:49:06;;;;;;;8.77;6.95;;;;;;;10.96;nan;100900.97;4958869;28;21118;-80
2024/01/29 09:51:33;;;;;;;9.77;6.07;;;;;;;10.78;nan;100908.75;4958772;28;20201;-80
2024/01/29 09:54:00;;;;;;;12.30;7.63;;;;;;;10.49;nan;100907.38;4958833;28;20601;-80
2024/01/29 09:56:26;;;;;;;9.32;6.93;;;;;;;10.25;nan;100903.13;4958660;28;20200;-80
2024/01/29 09:58:51;;;;;;;8.00;6.50;;;;;;;9.94;nan;100905.22;4958816;28;20223;-80
2024/01/29 10:01:20;;;;;;;10.73;7.30;;;;;;;9.72;nan;100910.47;4957183;28;20239;-78
2024/01/29 10:03:46;;;;;;;9.60;6.93;;;;;;;9.79;nan;100908.47;4957596;28;20209;-80
2024/01/29 10:06:12;;;;;;;8.85;7.90;;;;;;;10.16;nan;100913.09;4959108;28;20212;-80
2024/01/29 10:08:37;;;;;;;11.73;8.37;;;;;;;10.45;nan;100911.06;4957146;28;20457;-80
2024/01/29 10:11:03;;;;;;;10.53;6.73;;;;;;;10.65;nan;100904.94;4957830;28;20267;-80
2024/01/29 10:13:29;;;;;;;9.50;7.47;;;;;;;10.83;nan;100904.16;4955647;28;20212;-80
2024/01/29 10:15:56;;;;;;;8.23;5.67;;;;;;;10.98;nan;100912.28;4956535;28;20204;-79
2024/01/29 10:18:22;;;;;;;8.15;5.25;;;;;;;11.06;nan;100905.75;4956165;28;20306;-79
2024/01/29 10:20:58;;;;;;;6.03;5.43;;;;;;;11.12;nan;100901.97;4958008;28;20331;-81
2024/01/29 10:23:24;;;;;;;7.85;4.65;;;;;;;11.13;nan;100910.75;4954119;28;20196;-81
2024/01/29 10:26:02;;;;;;;6.67;5.90;;;;;;;11.07;nan;100910.09;4954531;28;20573;-78
2024/01/29 10:28:28;;;;;;;8.65;6.13;;;;;;;10.89;nan;100912.69;4950743;28;20256;-80
2024/01/29 10:30:55;;;;;;;7.63;5.70;;;;;;;10.74;nan;100909.78;4954330;28;20796;-80
2024/01/29 10:33:21;;;;;;;7.00;4.65;;;;;;;10.66;nan;100906.66;4954943;28;20957;-80
2024/01/29 10:35:48;;;;;;;8.80;6.00;;;;;;;10.62;nan;100905.09;4952370;28;20326;-80
2024/01/29 10:38:17;;;;;;;8.85;6.50;;;;;;;10.56;nan;100900.09;4950789;28;20521;-80
2024/01/29 10:40:44;;;;;;;9.00;6.63;;;;;;;10.50;nan;100897.72;4954068;28;20196;-81
2024/01/29 10:43:18;;;;;;;8.35;5.65;;;;;;;10.47;nan;100896.06;4953604;28;20211;-80
2024/01/29 10:45:48;;;;;;;10.55;5.18;;;;;;;10.37;nan;100900.03;4953423;28;20204;-80
2024/01/29 10:48:20;;;;;;;5.97;5.03;;;;;;;10.27;nan;100901.28;4952356;28;21056;-81
2024/01/29 10:50:47;;;;;;;7.68;5.15;;;;;;;10.14;nan;100898.31;4951914;28;20295;-80
2024/01/29 10:53:15;;;;;;;6.63;5.40;;;;;;;10.06;nan;100893.38;4953211;28;20594;-80
2024/01/29 10:55:46;;;;;;;8.05;5.30;;;;;;;9.96;nan;100898.16;4952898;28;20204;-80
2024/01/29 10:58:13;;;;;;;5.28;4.60;;;;;;;9.82;nan;100891.75;4950334;28;20481;-80
2024/01/29 11:00:43;;;;;;;7.82;5.68;;;;;;;9.67;nan;100898.47;4951046;28;20267;-80
2024/01/29 11:03:10;;;;;;;6.05;4.80;;;;;;;9.52;nan;100898.13;4948951;28;20203;-80
2024/01/29 11:05:38;;;;;;;9.60;5.25;;;;;;;9.45;nan;100893.16;4950032;28;20180;-80
2024/01/29 11:08:08;;;;;;;9.43;5.93;;;;;;;9.42;nan;100898.53;4952965;28;20453;-79
2024/01/29 11:10:34;;;;;;;7.15;5.30;;;;;;;9.44;nan;100887.06;4951988;28;20453;-79
2024/01/29 11:13:02;;;;;;;6.67;5.47;;;;;;;9.49;nan;100885.13;4952054;28;20205;-80
2024/01/29 11:15:29;;;;;;;6.97;4.40;;;;;;;9.56;nan;100877.91;4952114;28;20207;-79
2024/01/29 11:17:58;;;;;;;5.90;5.20;;;;;;;9.61;nan;100861.94;4953044;28;20218;-80
2024/01/29 11:20:24;;;;;;;6.50;4.55;;;;;;;9.65;nan;100869.66;4951597;28;20267;-80
2024/01/29 11:22:57;;;;;;;11.00;5.57;;;;;;;9.71;nan;100864.16;4950206;28;20555;-80
2024/01/29 11:25:25;;;;;;;10.05;5.40;;;;;;;9.78;nan;100863.94;4950811;28;20455;-80
2024/01/29 11:27:51;;;;;;;32.13;10.82;;;;;;;9.82;nan;100868.97;4949847;28;20212;-79
2024/01/29 11:30:27;;;;;;;31.33;9.13;;;;;;;9.88;nan;100865.25;4950861;28;20209;-79
2024/01/29 11:32:55;;;;;;;8.23;5.07;;;;;;;9.87;nan;100861.78;4949742;28;20204;-80
2024/01/29 11:35:26;;;;;;;9.40;5.72;;;;;;;9.85;nan;100863.59;4949080;28;20279;-80
2024/01/29 11:37:52;;;;;;;7.78;6.15;;;;;;;9.88;nan;100858.25;4947359;28;20442;-79
2024/01/29 11:40:40;;;;;;;8.52;5.05;;;;;;;9.97;nan;100857.84;4951139;28;20195;-79
2024/01/29 11:43:19;;;;;;;7.00;6.25;;;;;;;10.07;nan;100858.34;4951009;28;20224;-79
2024/01/29 11:45:50;;;;;;;6.70;5.40;;;;;;;10.13;nan;100852.84;4950121;28;20208;-80
2024/01/29 11:48:20;;;;;;;7.68;5.38;;;;;;;10.16;nan;100851.84;4951074;28;20255;-80
2024/01/29 11:50:48;;;;;;;6.53;5.88;;;;;;;10.16;nan;100855.31;4949813;28;20215;-80